createdAt,value
2022-07-26T00:02:18.615Z,3.30
2022-07-26T00:04:46.914Z,3.03
2022-07-26T00:07:25.284Z,3.55
2022-07-26T00:10:13.173Z,3.75
2022-07-26T00:12:55.040Z,3.15
2022-07-26T00:15:27.917Z,3.50
2022-07-26T00:18:15.539Z,3.10
2022-07-26T00:21:07.733Z,3.47
2022-07-26T00:23:47.200Z,4.22
2022-07-26T00:26:38.729Z,3.50
2022-07-26T00:29:18.112Z,3.58
2022-07-26T00:31:50.117Z,3.30
2022-07-26T00:34:27.732Z,4.18
2022-07-26T00:37:20.652Z,3.75
2022-07-26T00:40:04.803Z,3.47
2022-07-26T00:42:47.105Z,4.32
2022-07-26T00:45:20.419Z,3.97
2022-07-26T00:47:53.143Z,4.18
2022-07-26T00:50:36.986Z,4.15
2022-07-26T00:55:55.875Z,3.63
2022-07-26T00:58:39.300Z,4.20
2022-07-26T01:01:17.851Z,4.60
2022-07-26T01:03:54.614Z,4.93
2022-07-26T01:06:27.473Z,3.72
2022-07-26T01:09:06.260Z,3.83
2022-07-26T01:11:54.436Z,4.32
2022-07-26T01:14:33.760Z,4.75
2022-07-26T01:17:23.804Z,4.63
2022-07-26T01:20:08.123Z,4.80
2022-07-26T01:22:52.678Z,4.97
2022-07-26T01:25:43.176Z,4.97
2022-07-26T01:28:19.786Z,4.20
2022-07-26T01:31:05.051Z,4.68
2022-07-26T01:33:41.932Z,5.00
2022-07-26T01:36:27.878Z,4.35
2022-07-26T01:39:09.405Z,5.05
2022-07-26T01:41:41.941Z,4.75
2022-07-26T01:44:26.087Z,5.07
2022-07-26T01:47:17.240Z,4.82
2022-07-26T01:49:55.200Z,5.45
2022-07-26T01:52:44.303Z,5.30
2022-07-26T01:55:24.437Z,5.43
2022-07-26T01:58:10.386Z,5.38
2022-07-26T02:00:54.056Z,5.05
2022-07-26T02:03:35.887Z,4.28
2022-07-26T02:06:10.410Z,5.10
2022-07-26T02:08:51.841Z,3.97
2022-07-26T02:11:53.879Z,4.65
2022-07-26T02:14:29.654Z,4.32
2022-07-26T02:17:14.675Z,4.63
2022-07-26T02:22:43.365Z,4.75
2022-07-26T02:25:17.960Z,4.32
2022-07-26T02:28:04.858Z,4.80
2022-07-26T02:30:45.720Z,4.82
2022-07-26T02:33:26.687Z,4.20
2022-07-26T02:36:05.895Z,4.53
2022-07-26T02:38:44.772Z,4.97
2022-07-26T02:41:36.109Z,5.68
2022-07-26T02:44:21.250Z,5.10
2022-07-26T02:47:07.628Z,5.95
2022-07-26T02:49:51.723Z,5.00
2022-07-26T02:52:40.737Z,5.20
2022-07-26T02:55:20.914Z,4.57
2022-07-26T02:58:05.610Z,5.88
2022-07-26T03:03:36.524Z,5.05
2022-07-26T03:06:17.415Z,5.13
2022-07-26T03:08:48.255Z,4.93
2022-07-26T03:11:26.495Z,5.20
2022-07-26T03:14:12.583Z,6.10
2022-07-26T03:17:13.805Z,5.18
2022-07-26T03:19:57.815Z,5.35
2022-07-26T03:22:45.644Z,5.15
2022-07-26T03:25:26.853Z,5.47
2022-07-26T03:28:07.850Z,5.22
2022-07-26T03:30:54.769Z,5.18
2022-07-26T03:33:41.630Z,5.40
2022-07-26T03:36:25.962Z,5.03
2022-07-26T03:39:09.737Z,5.65
2022-07-26T03:41:55.771Z,5.90
2022-07-26T03:44:50.899Z,5.53
2022-07-26T03:47:27.023Z,5.85
2022-07-26T03:49:57.029Z,5.32
2022-07-26T03:52:39.862Z,5.47
2022-07-26T03:55:45.074Z,6.88
2022-07-26T03:58:34.162Z,5.40
2022-07-26T04:01:29.272Z,5.60
2022-07-26T04:04:25.288Z,6.57
2022-07-26T04:07:03.152Z,5.63
2022-07-26T04:09:55.078Z,5.82
2022-07-26T04:12:41.705Z,6.00
2022-07-26T04:15:27.618Z,7.97
2022-07-26T04:18:17.425Z,6.50
2022-07-26T04:21:04.736Z,7.22
2022-07-26T04:23:51.133Z,7.20
2022-07-26T04:26:43.839Z,6.25
2022-07-26T04:29:39.034Z,6.85
2022-07-26T04:32:25.760Z,7.03
2022-07-26T04:37:51.738Z,7.22
2022-07-26T04:40:44.448Z,6.90
2022-07-26T04:43:35.791Z,6.15
2022-07-26T04:46:17.640Z,5.40
2022-07-26T04:48:54.761Z,5.32
2022-07-26T04:51:47.123Z,5.10
2022-07-26T04:54:23.189Z,5.07
2022-07-26T04:57:07.001Z,5.80
2022-07-26T05:00:16.815Z,5.53
2022-07-26T05:02:58.741Z,4.82
2022-07-26T05:05:43.861Z,5.57
2022-07-26T05:08:21.880Z,5.30
2022-07-26T05:11:02.037Z,4.60
2022-07-26T05:13:37.440Z,5.28
2022-07-26T05:16:11.749Z,5.43
2022-07-26T05:18:49.998Z,5.35
2022-07-26T05:21:33.746Z,5.05
2022-07-26T05:24:15.932Z,5.03
2022-07-26T05:27:04.988Z,5.57
2022-07-26T05:29:46.644Z,5.18
2022-07-26T05:32:32.827Z,5.10
2022-07-26T05:35:19.606Z,5.43
2022-07-26T05:38:08.630Z,4.80
2022-07-26T05:40:50.812Z,5.10
2022-07-26T05:43:41.126Z,5.85
2022-07-26T05:46:24.666Z,5.32
2022-07-26T05:49:15.333Z,4.70
2022-07-26T05:52:06.528Z,5.13
2022-07-26T05:54:40.007Z,4.88
2022-07-26T05:57:30.470Z,5.10
2022-07-26T06:00:17.945Z,5.70
2022-07-26T06:02:59.552Z,6.30
2022-07-26T06:05:40.584Z,6.20
2022-07-26T06:08:24.946Z,6.18
2022-07-26T06:11:01.976Z,6.65
2022-07-26T06:13:40.235Z,6.22
2022-07-26T06:16:22.959Z,5.80
2022-07-26T06:19:16.367Z,6.03
2022-07-26T06:21:57.249Z,6.93
2022-07-26T06:24:45.755Z,5.38
2022-07-26T06:27:33.726Z,5.95
2022-07-26T06:30:19.773Z,5.30
2022-07-26T06:32:49.388Z,6.10
2022-07-26T06:35:42.006Z,5.25
2022-07-26T06:38:34.556Z,5.70
2022-07-26T06:41:18.260Z,5.30
2022-07-26T06:44:03.583Z,5.70
2022-07-26T06:46:44.095Z,5.18
2022-07-26T06:49:32.921Z,4.88
2022-07-26T06:52:06.828Z,5.40
2022-07-26T06:54:47.631Z,4.88
2022-07-26T06:57:30.168Z,5.18
2022-07-26T07:00:17.907Z,5.40
2022-07-26T07:02:58.853Z,5.05
2022-07-26T07:05:45.371Z,5.38
2022-07-26T07:08:27.676Z,4.88
2022-07-26T07:11:01.920Z,5.72
2022-07-26T07:13:42.664Z,5.25
2022-07-26T07:19:01.116Z,4.60
2022-07-26T07:21:39.334Z,4.70
2022-07-26T07:24:23.837Z,5.78
2022-07-26T07:27:07.829Z,5.60
2022-07-26T07:29:53.967Z,5.05
2022-07-26T07:32:31.501Z,5.70
2022-07-26T07:35:14.896Z,5.30
2022-07-26T07:38:04.774Z,5.25
2022-07-26T07:40:43.340Z,5.32
2022-07-26T07:43:26.152Z,5.35
2022-07-26T07:48:47.001Z,5.60
2022-07-26T07:51:37.732Z,5.05
2022-07-26T07:54:19.917Z,5.60
2022-07-26T07:57:20.888Z,5.10
2022-07-26T08:00:05.413Z,4.72
2022-07-26T08:02:58.037Z,5.75
2022-07-26T08:05:40.312Z,5.40
2022-07-26T08:08:13.157Z,5.38
2022-07-26T08:11:00.768Z,5.15
2022-07-26T08:13:47.586Z,5.82
2022-07-26T08:16:36.247Z,5.07
2022-07-26T08:19:25.053Z,5.10
2022-07-26T08:22:15.278Z,4.90
2022-07-26T08:25:00.914Z,5.70
2022-07-26T08:27:40.638Z,5.97
2022-07-26T08:30:14.098Z,5.40
2022-07-26T08:32:59.896Z,6.00
2022-07-26T08:35:36.894Z,5.60
2022-07-26T08:38:20.889Z,5.72
2022-07-26T08:41:06.099Z,5.57
2022-07-26T08:43:52.314Z,6.15
2022-07-26T08:46:40.138Z,5.47
2022-07-26T08:49:22.036Z,5.80
2022-07-26T08:52:09.589Z,5.88
2022-07-26T08:54:53.865Z,5.50
2022-07-26T08:57:30.015Z,5.90
2022-07-26T09:00:20.791Z,5.53
2022-07-26T09:03:12.595Z,6.07
2022-07-26T09:05:56.432Z,5.68
2022-07-26T09:11:33.197Z,4.80
2022-07-26T09:14:36.913Z,5.47
2022-07-26T09:17:14.830Z,5.57
2022-07-26T09:20:12.616Z,5.93
2022-07-26T09:23:14.119Z,5.72
2022-07-26T09:25:52.041Z,5.57
2022-07-26T09:28:44.934Z,5.35
2022-07-26T09:31:23.969Z,5.35
2022-07-26T09:34:08.317Z,5.70
2022-07-26T09:36:57.394Z,5.57
2022-07-26T09:39:55.456Z,6.75
2022-07-26T09:43:03.082Z,7.03
2022-07-26T09:45:41.757Z,7.50
2022-07-26T09:48:59.575Z,6.32
2022-07-26T09:52:19.362Z,6.32
2022-07-26T09:55:09.933Z,5.93
2022-07-26T09:57:53.592Z,5.50
2022-07-26T10:00:35.818Z,6.18
2022-07-26T10:03:13.597Z,6.55
2022-07-26T10:05:56.920Z,6.47
2022-07-26T10:08:32.993Z,6.60
2022-07-26T10:11:14.435Z,7.65
2022-07-26T10:13:55.111Z,7.32
2022-07-26T10:16:32.569Z,6.60
2022-07-26T10:19:08.270Z,6.63
2022-07-26T10:21:35.436Z,6.30
2022-07-26T10:24:04.386Z,6.18
2022-07-26T10:26:31.473Z,7.47
2022-07-26T10:29:19.240Z,6.95
2022-07-26T10:32:08.974Z,6.85
2022-07-26T10:34:43.571Z,8.18
2022-07-26T10:37:21.914Z,13.07
2022-07-26T10:40:22.877Z,16.33
2022-07-26T10:43:39.052Z,18.45
2022-07-26T10:46:20.666Z,19.83
2022-07-26T10:49:11.775Z,23.50
2022-07-26T10:51:46.247Z,22.83
2022-07-26T10:54:24.156Z,30.17
2022-07-26T10:57:13.555Z,35.00
2022-07-26T10:59:55.781Z,31.45
2022-07-26T11:02:26.553Z,25.80
2022-07-26T11:05:19.103Z,28.27
2022-07-26T11:08:10.655Z,22.08
2022-07-26T11:11:05.018Z,26.58
2022-07-26T11:16:11.460Z,25.25
2022-07-26T11:18:46.669Z,30.58
2022-07-26T11:21:29.626Z,23.42
2022-07-26T11:24:08.519Z,16.38
2022-07-26T11:27:05.261Z,17.40
2022-07-26T11:29:51.687Z,17.95
2022-07-26T11:32:54.409Z,17.20
2022-07-26T11:35:32.958Z,16.75
2022-07-26T11:38:12.571Z,15.80
2022-07-26T11:41:05.666Z,16.52
2022-07-26T11:43:50.098Z,20.88
2022-07-26T11:46:40.207Z,16.40
2022-07-26T11:52:39.884Z,18.58
2022-07-26T11:55:15.898Z,13.00
2022-07-26T11:57:53.894Z,16.33
2022-07-26T12:00:27.247Z,17.38
2022-07-26T12:03:03.039Z,13.27
2022-07-26T12:05:34.335Z,13.88
2022-07-26T12:08:08.372Z,14.40
2022-07-26T12:10:43.841Z,12.20
2022-07-26T12:13:19.192Z,11.70
2022-07-26T12:15:52.100Z,12.15
2022-07-26T12:18:36.853Z,13.00
2022-07-26T12:21:18.020Z,13.75
2022-07-26T12:23:58.575Z,12.55
2022-07-26T12:26:42.713Z,13.85
2022-07-26T12:29:32.843Z,15.60
2022-07-26T12:32:24.549Z,17.25
2022-07-26T12:35:28.193Z,20.40
2022-07-26T12:38:10.886Z,21.05
2022-07-26T12:40:52.976Z,17.95
2022-07-26T12:43:25.555Z,23.50
2022-07-26T12:46:06.124Z,16.70
2022-07-26T12:48:47.097Z,13.02
2022-07-26T12:51:20.952Z,16.80
2022-07-26T12:53:48.411Z,15.15
2022-07-26T12:56:25.102Z,12.93
2022-07-26T12:59:17.972Z,14.93
2022-07-26T13:01:45.923Z,13.88
2022-07-26T13:04:23.654Z,13.75
2022-07-26T13:07:03.541Z,14.48
2022-07-26T13:09:44.945Z,14.27
2022-07-26T13:12:38.276Z,12.38
2022-07-26T13:15:22.467Z,13.07
2022-07-26T13:17:55.541Z,13.90
2022-07-26T13:20:30.901Z,14.03
2022-07-26T13:23:03.323Z,12.48
2022-07-26T13:25:40.497Z,13.25
2022-07-26T13:28:13.442Z,10.52
2022-07-26T13:30:56.338Z,10.25
2022-07-26T13:33:31.735Z,9.77
2022-07-26T13:36:18.282Z,8.60
2022-07-26T13:38:48.404Z,8.90
2022-07-26T13:41:38.347Z,8.88
2022-07-26T13:44:08.541Z,9.15
2022-07-26T13:46:48.755Z,9.45
2022-07-26T13:49:21.287Z,9.20
2022-07-26T13:51:59.972Z,10.10
2022-07-26T13:54:33.161Z,10.00
2022-07-26T13:57:07.826Z,10.63
2022-07-26T13:59:53.772Z,10.43
2022-07-26T14:02:34.833Z,10.38
2022-07-26T14:05:21.788Z,9.85
2022-07-26T14:07:55.288Z,10.18
2022-07-26T14:10:29.590Z,10.23
2022-07-26T14:13:07.808Z,9.70
2022-07-26T14:15:59.358Z,11.60
2022-07-26T14:18:34.659Z,9.32
2022-07-26T14:21:10.678Z,10.18
2022-07-26T14:23:58.709Z,10.60
2022-07-26T14:26:38.765Z,10.00
2022-07-26T14:29:17.938Z,11.55
2022-07-26T14:31:54.167Z,10.80
2022-07-26T14:34:34.259Z,10.20
2022-07-26T14:37:40.718Z,10.65
2022-07-26T14:40:08.786Z,11.07
2022-07-26T14:42:51.419Z,10.85
2022-07-26T14:45:44.143Z,11.13
2022-07-26T14:48:51.743Z,11.32
2022-07-26T14:51:29.785Z,11.57
2022-07-26T14:54:13.980Z,12.52
2022-07-26T14:56:52.869Z,12.27
2022-07-26T14:59:44.130Z,12.05
2022-07-26T15:02:27.102Z,12.77
2022-07-26T15:05:00.297Z,13.40
2022-07-26T15:07:32.736Z,13.88
2022-07-26T15:10:08.918Z,12.82
2022-07-26T15:12:37.916Z,14.48
2022-07-26T15:15:21.820Z,14.20
2022-07-26T15:18:09.710Z,13.43
2022-07-26T15:20:56.191Z,13.90
2022-07-26T15:23:36.405Z,13.02
2022-07-26T15:26:18.076Z,12.90
2022-07-26T15:28:59.357Z,13.27
2022-07-26T15:31:37.315Z,13.10
2022-07-26T15:34:19.716Z,12.80
2022-07-26T15:36:58.134Z,13.15
2022-07-26T15:39:30.569Z,13.05
2022-07-26T15:42:15.227Z,12.38
2022-07-26T15:45:00.611Z,12.43
2022-07-26T15:47:57.335Z,13.07
2022-07-26T15:50:53.680Z,12.40
2022-07-26T15:53:34.274Z,12.95
2022-07-26T15:56:04.902Z,12.02
2022-07-26T15:58:48.803Z,11.75
2022-07-26T16:01:19.114Z,11.82
2022-07-26T16:03:55.428Z,11.77
2022-07-26T16:06:25.903Z,11.95
2022-07-26T16:09:17.740Z,11.45
2022-07-26T16:12:06.139Z,11.82
2022-07-26T16:14:44.540Z,12.55
2022-07-26T16:17:19.877Z,11.90
2022-07-26T16:19:54.924Z,12.93
2022-07-26T16:22:33.608Z,12.80
2022-07-26T16:25:08.942Z,12.77
2022-07-26T16:27:45.012Z,13.10
2022-07-26T16:33:26.019Z,12.98
2022-07-26T16:35:55.924Z,12.90
2022-07-26T16:38:40.891Z,13.65
2022-07-26T16:41:17.587Z,14.05
2022-07-26T16:43:55.625Z,14.75
2022-07-26T16:46:23.204Z,14.23
2022-07-26T16:49:01.271Z,14.85
2022-07-26T16:51:35.875Z,15.07
2022-07-26T16:54:14.386Z,16.55
2022-07-26T16:56:41.371Z,17.88
2022-07-26T16:59:20.093Z,18.00
2022-07-26T17:02:01.665Z,17.85
2022-07-26T17:04:34.911Z,18.03
2022-07-26T17:07:25.035Z,17.67
2022-07-26T17:09:57.769Z,17.85
2022-07-26T17:12:25.965Z,17.80
2022-07-26T17:15:01.193Z,19.05
2022-07-26T17:17:48.698Z,18.08
2022-07-26T17:20:37.129Z,18.58
2022-07-26T17:23:12.350Z,19.05
2022-07-26T17:25:53.853Z,18.95
2022-07-26T17:28:51.885Z,18.15
2022-07-26T17:31:36.229Z,18.67
2022-07-26T17:34:18.870Z,17.95
2022-07-26T17:37:03.137Z,18.13
2022-07-26T17:39:58.747Z,19.20
2022-07-26T17:42:28.160Z,18.15
2022-07-26T17:44:59.665Z,18.83
2022-07-26T17:47:35.920Z,19.23
2022-07-26T17:50:36.026Z,19.17
2022-07-26T17:53:21.205Z,19.52
2022-07-26T17:56:18.444Z,20.02
2022-07-26T17:58:58.912Z,20.50
2022-07-26T18:01:31.696Z,21.48
2022-07-26T18:04:07.978Z,20.95
2022-07-26T18:06:56.977Z,20.27
2022-07-26T18:09:42.562Z,20.65
2022-07-26T18:12:20.274Z,20.92
2022-07-26T18:15:27.563Z,20.75
2022-07-26T18:18:24.118Z,19.67
2022-07-26T18:20:53.473Z,21.17
2022-07-26T18:23:32.142Z,21.50
2022-07-26T18:26:13.038Z,21.77
2022-07-26T18:28:49.704Z,21.98
2022-07-26T18:31:42.853Z,20.83
2022-07-26T18:34:18.985Z,21.23
2022-07-26T18:36:55.142Z,21.23
2022-07-26T18:39:33.385Z,21.45
2022-07-26T18:42:06.353Z,23.08
2022-07-26T18:44:43.938Z,22.67
2022-07-26T18:50:17.434Z,20.95
2022-07-26T18:52:45.128Z,22.83
2022-07-26T18:55:26.605Z,22.35
2022-07-26T18:58:03.345Z,21.25
2022-07-26T19:00:49.864Z,21.80
2022-07-26T19:03:41.604Z,20.83
2022-07-26T19:06:16.966Z,20.40
2022-07-26T19:08:54.817Z,20.67
2022-07-26T19:11:39.043Z,20.02
2022-07-26T19:14:14.628Z,20.38
2022-07-26T19:16:50.281Z,18.77
2022-07-26T19:19:31.335Z,20.42
2022-07-26T19:22:14.831Z,19.15
2022-07-26T19:25:03.913Z,19.30
2022-07-26T19:27:42.634Z,19.65
2022-07-26T19:30:26.365Z,18.50
2022-07-26T19:33:17.031Z,18.85
2022-07-26T19:35:52.447Z,18.17
2022-07-26T19:38:41.646Z,18.05
2022-07-26T19:41:23.414Z,19.10
2022-07-26T19:44:09.542Z,17.60
2022-07-26T19:46:57.526Z,17.45
2022-07-26T19:49:30.324Z,17.45
2022-07-26T19:52:00.318Z,16.40
2022-07-26T19:54:36.256Z,16.17
2022-07-26T19:57:16.934Z,15.93
2022-07-26T20:00:02.553Z,15.05
2022-07-26T20:02:58.789Z,15.35
2022-07-26T20:05:43.069Z,15.15
2022-07-26T20:08:27.891Z,15.00
2022-07-26T20:11:22.077Z,14.05
2022-07-26T20:13:57.468Z,14.30
2022-07-26T20:16:27.515Z,13.52
2022-07-26T20:18:54.712Z,12.73
2022-07-26T20:21:27.979Z,12.43
2022-07-26T20:24:03.891Z,12.60
2022-07-26T20:26:39.947Z,13.02
2022-07-26T20:29:25.959Z,12.40
2022-07-26T20:32:09.365Z,11.40
2022-07-26T20:34:41.731Z,11.32
2022-07-26T20:37:32.899Z,10.48
2022-07-26T20:40:12.957Z,9.75
2022-07-26T20:42:56.883Z,10.45
2022-07-26T20:45:30.115Z,10.30
2022-07-26T20:48:12.057Z,10.20
2022-07-26T20:51:04.093Z,8.80
2022-07-26T20:53:39.939Z,9.60
2022-07-26T20:56:21.821Z,10.25
2022-07-26T20:59:12.223Z,9.27
2022-07-26T21:01:39.604Z,9.02
2022-07-26T21:04:14.069Z,8.27
2022-07-26T21:06:45.184Z,8.93
2022-07-26T21:09:27.217Z,8.05
2022-07-26T21:12:11.052Z,8.30
2022-07-26T21:14:57.740Z,8.13
2022-07-26T21:17:46.617Z,8.32
2022-07-26T21:20:27.092Z,7.82
2022-07-26T21:23:17.663Z,7.47
2022-07-26T21:25:57.913Z,7.90
2022-07-26T21:28:40.547Z,8.05
2022-07-26T21:31:24.076Z,8.00
2022-07-26T21:34:05.300Z,7.78
2022-07-26T21:36:46.557Z,7.90
2022-07-26T21:39:41.037Z,8.48
2022-07-26T21:42:26.827Z,8.00
2022-07-26T21:45:07.889Z,7.05
2022-07-26T21:47:46.904Z,7.28
2022-07-26T21:50:25.431Z,7.53
2022-07-26T21:52:55.219Z,7.47
2022-07-26T21:55:34.938Z,7.90
2022-07-26T21:58:12.917Z,7.03
2022-07-26T22:00:56.349Z,6.72
2022-07-26T22:03:40.318Z,6.93
2022-07-26T22:06:21.977Z,6.97
2022-07-26T22:11:41.901Z,6.43
2022-07-26T22:14:32.736Z,6.22
2022-07-26T22:17:08.637Z,7.05
2022-07-26T22:19:51.961Z,6.15
2022-07-26T22:22:33.655Z,6.00
2022-07-26T22:25:20.006Z,5.90
2022-07-26T22:28:02.077Z,5.90
2022-07-26T22:30:37.608Z,5.55
2022-07-26T22:33:12.416Z,6.07
2022-07-26T22:35:53.026Z,6.45
2022-07-26T22:38:36.556Z,5.90
2022-07-26T22:41:23.829Z,5.30
2022-07-26T22:44:07.396Z,5.57
2022-07-26T22:46:58.814Z,5.07
2022-07-26T22:49:32.169Z,5.45
2022-07-26T22:52:18.498Z,6.03
2022-07-26T22:54:53.815Z,5.70
2022-07-26T22:57:42.168Z,5.68
2022-07-26T23:00:30.094Z,5.75
2022-07-26T23:02:57.149Z,5.63
2022-07-26T23:05:47.479Z,6.13
2022-07-26T23:08:47.727Z,6.38
2022-07-26T23:11:32.861Z,6.63
2022-07-26T23:14:22.726Z,6.95
2022-07-26T23:17:08.977Z,7.05
2022-07-26T23:19:56.095Z,7.43
2022-07-26T23:22:43.387Z,7.18
2022-07-26T23:25:27.462Z,7.10
2022-07-26T23:28:08.586Z,7.80
2022-07-26T23:31:13.810Z,7.18
2022-07-26T23:33:57.017Z,7.07
2022-07-26T23:36:40.411Z,6.85
2022-07-26T23:39:17.102Z,7.63
2022-07-26T23:44:52.617Z,7.63
2022-07-26T23:47:37.927Z,7.65
2022-07-26T23:50:08.091Z,8.50
2022-07-26T23:52:48.802Z,9.07
2022-07-26T23:55:35.809Z,7.78
2022-07-26T23:58:27.918Z,8.05
